Webcam

2017/01/21 10:20 EBBR 211020Z 13002KT CAVOK 00/M04 Q1029 NOSIG

Webcam image

--- Refresh now ---